Time;durP1;ratioP1;P1;durP2;ratioP2;P2;SDS_P1;SDS_P2;PMS_P1;PMS_P2;Temp;Humidity;BMP_temperature;BMP_pressure;BME280_temperature;BME280_humidity;BME280_pressure;Samples;Min_cycle;Max_cycle;Signal;HPM_P1;HPM_P2
2024/02/27 00:00:30;;;;;;;26.73;22.47;;;8.80;99.90;;;;;;5073489;28;20499;-56
2024/02/27 00:02:57;;;;;;;25.03;20.80;;;8.80;99.90;;;;;;5073306;28;20472;-56
2024/02/27 00:05:25;;;;;;;27.00;21.03;;;8.80;99.90;;;;;;5073277;28;20472;-56
2024/02/27 00:07:54;;;;;;;24.20;20.87;;;8.80;99.90;;;;;;5073036;28;20536;-56
2024/02/27 00:10:20;;;;;;;24.83;20.20;;;8.80;99.90;;;;;;5073158;28;20544;-56
2024/02/27 00:12:47;;;;;;;25.43;20.90;;;8.80;99.90;;;;;;5073056;28;20457;-56
2024/02/27 00:15:14;;;;;;;27.70;22.50;;;8.80;99.90;;;;;;5072662;28;20457;-56
2024/02/27 00:17:44;;;;;;;28.60;19.97;;;8.70;99.90;;;;;;5072960;28;20539;-56
2024/02/27 00:20:11;;;;;;;28.70;21.47;;;8.70;99.90;;;;;;5072915;28;20440;-56
2024/02/27 00:22:38;;;;;;;26.50;22.20;;;8.70;99.90;;;;;;5072927;28;20464;-55
2024/02/27 00:25:07;;;;;;;27.40;20.90;;;8.70;99.90;;;;;;5072905;28;20436;-56
2024/02/27 00:27:34;;;;;;;28.00;22.90;;;8.70;99.90;;;;;;5072879;28;20444;-56
2024/02/27 00:30:01;;;;;;;32.00;20.90;;;8.70;99.90;;;;;;5072802;28;20484;-56
2024/02/27 00:32:27;;;;;;;28.60;21.73;;;8.70;99.90;;;;;;5072800;28;20474;-56
2024/02/27 00:34:55;;;;;;;25.60;22.00;;;8.70;99.90;;;;;;5072727;28;20447;-56
2024/02/27 00:37:22;;;;;;;26.50;21.13;;;8.70;99.90;;;;;;5072379;28;20943;-55
2024/02/27 00:39:49;;;;;;;29.63;22.03;;;8.70;99.90;;;;;;5072691;28;20445;-56
2024/02/27 00:42:17;;;;;;;26.73;20.60;;;8.70;99.90;;;;;;5072814;28;20465;-56
2024/02/27 00:44:45;;;;;;;27.33;20.63;;;8.70;99.90;;;;;;5072520;28;20449;-56
2024/02/27 00:47:12;;;;;;;26.83;21.10;;;8.70;99.90;;;;;;5072819;28;20445;-56
2024/02/27 00:49:39;;;;;;;24.43;19.30;;;8.70;99.90;;;;;;5072655;28;20487;-56
2024/02/27 00:52:08;;;;;;;26.47;21.17;;;8.70;99.90;;;;;;5072306;28;21002;-56
2024/02/27 00:54:35;;;;;;;28.70;21.27;;;8.70;99.90;;;;;;5071757;28;20464;-56
2024/02/27 00:57:02;;;;;;;27.23;21.60;;;8.70;99.90;;;;;;5071849;28;20507;-56
2024/02/27 00:59:30;;;;;;;26.20;20.27;;;8.70;99.90;;;;;;5073020;28;20444;-56
2024/02/27 01:01:57;;;;;;;29.07;22.10;;;8.60;99.90;;;;;;5075693;28;21016;-55
2024/02/27 01:04:23;;;;;;;25.80;21.00;;;8.60;99.90;;;;;;5075677;28;20821;-56
2024/02/27 01:06:50;;;;;;;22.33;19.93;;;8.70;99.90;;;;;;5075740;28;20900;-56
2024/02/27 01:09:17;;;;;;;27.90;22.23;;;8.70;99.90;;;;;;5075927;28;20476;-56
2024/02/27 01:11:44;;;;;;;26.27;22.43;;;8.70;99.90;;;;;;5075872;28;20471;-56
2024/02/27 01:14:10;;;;;;;26.73;22.30;;;8.60;99.90;;;;;;5075662;28;20539;-56
2024/02/27 01:16:39;;;;;;;25.37;20.23;;;8.60;99.90;;;;;;5075900;28;20881;-55
2024/02/27 01:19:05;;;;;;;29.20;21.03;;;8.60;99.90;;;;;;5076698;28;20437;-56
2024/02/27 01:21:32;;;;;;;23.37;20.03;;;8.70;99.90;;;;;;5075513;28;20469;-56
2024/02/27 01:23:59;;;;;;;26.13;21.10;;;8.60;99.90;;;;;;5075682;28;20452;-56
2024/02/27 01:26:26;;;;;;;24.40;20.10;;;8.60;99.90;;;;;;5075715;28;20490;-55
2024/02/27 01:28:53;;;;;;;24.50;19.70;;;8.60;99.90;;;;;;5075317;28;20479;-56
2024/02/27 01:31:19;;;;;;;26.23;20.87;;;8.60;99.90;;;;;;5075314;28;20476;-56
2024/02/27 01:33:48;;;;;;;26.87;21.00;;;8.60;99.90;;;;;;5075998;28;20452;-56
2024/02/27 01:36:15;;;;;;;24.57;19.77;;;8.60;99.90;;;;;;5075572;28;20448;-55
2024/02/27 01:38:42;;;;;;;28.53;22.07;;;8.60;99.90;;;;;;5075446;28;20441;-56
2024/02/27 01:41:09;;;;;;;28.77;21.70;;;8.70;99.90;;;;;;5075340;28;20810;-56
2024/02/27 01:43:35;;;;;;;23.17;19.20;;;8.60;99.90;;;;;;5075349;28;20777;-56
2024/02/27 01:46:11;;;;;;;23.73;19.80;;;8.60;99.90;;;;;;5075405;28;20909;-56
2024/02/27 01:48:38;;;;;;;24.10;19.13;;;8.60;99.90;;;;;;5075008;28;21018;-56
2024/02/27 01:51:07;;;;;;;26.97;20.97;;;8.60;99.90;;;;;;5075161;28;20440;-56
2024/02/27 01:53:35;;;;;;;26.90;20.53;;;8.60;99.90;;;;;;5074756;28;20548;-56
2024/02/27 01:56:04;;;;;;;26.00;20.43;;;8.60;99.90;;;;;;5075235;28;20475;-56
2024/02/27 01:58:32;;;;;;;25.93;20.73;;;8.60;99.90;;;;;;5075137;28;20448;-56
2024/02/27 02:00:58;;;;;;;26.37;20.13;;;8.60;99.90;;;;;;5074789;28;20445;-56
2024/02/27 02:03:28;;;;;;;23.77;19.40;;;8.60;99.90;;;;;;5075093;28;20437;-56
2024/02/27 02:05:58;;;;;;;23.87;19.60;;;8.60;99.90;;;;;;5074615;28;20532;-56
2024/02/27 02:08:28;;;;;;;25.87;20.30;;;8.70;99.90;;;;;;5074978;28;20888;-55
2024/02/27 02:10:55;;;;;;;25.67;21.90;;;8.60;99.90;;;;;;5073735;28;20445;-56
2024/02/27 02:13:22;;;;;;;26.23;20.17;;;8.60;99.90;;;;;;5075120;28;20443;-56
2024/02/27 02:15:49;;;;;;;24.83;19.80;;;8.60;99.90;;;;;;5074708;28;20448;-56
2024/02/27 02:18:15;;;;;;;24.97;19.90;;;8.60;99.90;;;;;;5074722;28;20448;-56
2024/02/27 02:20:44;;;;;;;23.60;20.17;;;8.60;99.90;;;;;;5074345;28;20931;-56
2024/02/27 02:23:10;;;;;;;24.30;18.53;;;8.60;99.90;;;;;;5074556;28;20473;-56
2024/02/27 02:25:38;;;;;;;27.80;20.90;;;8.60;99.90;;;;;;5074596;28;20528;-56
2024/02/27 02:28:05;;;;;;;26.37;21.00;;;8.50;99.90;;;;;;5074572;28;20552;-56
2024/02/27 02:30:32;;;;;;;28.00;20.33;;;8.60;99.90;;;;;;5074317;28;20488;-56
2024/02/27 02:32:59;;;;;;;26.37;20.83;;;8.60;99.90;;;;;;5074415;28;20462;-56
2024/02/27 02:35:26;;;;;;;27.87;22.67;;;8.60;99.90;;;;;;5074429;28;20447;-56
2024/02/27 02:37:54;;;;;;;26.27;20.40;;;8.60;99.90;;;;;;5074111;28;20789;-55
2024/02/27 02:40:21;;;;;;;26.40;20.47;;;8.60;99.90;;;;;;5074306;28;20440;-56
2024/02/27 02:42:48;;;;;;;22.80;19.00;;;8.60;99.90;;;;;;5074095;28;20475;-56
2024/02/27 02:45:15;;;;;;;24.13;19.27;;;8.60;99.90;;;;;;5074046;28;20475;-56
2024/02/27 02:47:42;;;;;;;27.97;21.10;;;8.60;99.90;;;;;;5074167;28;20440;-56
2024/02/27 02:50:10;;;;;;;26.33;20.57;;;8.60;99.90;;;;;;5073805;28;21012;-56
2024/02/27 02:52:37;;;;;;;27.03;20.73;;;8.60;99.90;;;;;;5073913;28;20993;-56
2024/02/27 02:55:06;;;;;;;24.23;19.60;;;8.60;99.90;;;;;;5074486;28;20452;-56
2024/02/27 02:57:33;;;;;;;24.17;19.23;;;8.60;99.90;;;;;;5075282;28;20449;-56
2024/02/27 03:00:00;;;;;;;24.23;18.50;;;8.50;99.90;;;;;;5074221;28;20927;-56
2024/02/27 03:02:27;;;;;;;24.40;20.07;;;8.50;99.90;;;;;;5074137;28;20469;-56
2024/02/27 03:04:53;;;;;;;24.30;19.50;;;8.50;99.90;;;;;;5074074;28;20445;-56
2024/02/27 03:07:20;;;;;;;27.60;20.20;;;8.50;99.90;;;;;;5074004;28;20445;-56
2024/02/27 03:09:47;;;;;;;25.43;19.20;;;8.50;99.90;;;;;;5074338;28;20487;-56
2024/02/27 03:12:15;;;;;;;23.63;19.20;;;8.50;99.90;;;;;;5073586;28;20471;-56
2024/02/27 03:14:45;;;;;;;26.43;17.40;;;8.50;99.90;;;;;;5073705;28;20445;-56
2024/02/27 03:17:13;;;;;;;23.87;18.77;;;8.50;99.90;;;;;;5073751;28;20520;-56
2024/02/27 03:19:40;;;;;;;26.20;19.13;;;8.50;99.90;;;;;;5073766;28;20443;-56
2024/02/27 03:22:08;;;;;;;24.80;18.70;;;8.40;99.90;;;;;;5073273;28;20881;-55
2024/02/27 03:24:35;;;;;;;25.07;19.07;;;8.40;99.90;;;;;;5073731;28;20518;-56
2024/02/27 03:27:01;;;;;;;22.70;19.20;;;8.40;99.90;;;;;;5073397;28;20938;-56
2024/02/27 03:29:29;;;;;;;29.77;20.37;;;8.40;99.90;;;;;;5073626;28;20545;-56
2024/02/27 03:31:56;;;;;;;26.33;19.27;;;8.40;99.90;;;;;;5073544;28;20461;-56
2024/02/27 03:34:24;;;;;;;25.37;20.47;;;8.40;99.90;;;;;;5073465;28;20442;-55
2024/02/27 03:36:51;;;;;;;25.03;18.53;;;8.40;99.90;;;;;;5073223;28;20966;-56
2024/02/27 03:39:17;;;;;;;26.17;18.90;;;8.40;99.90;;;;;;5073903;28;20788;-56
2024/02/27 03:41:44;;;;;;;25.97;19.53;;;8.40;99.90;;;;;;5073474;28;20465;-56
2024/02/27 03:44:11;;;;;;;24.20;19.27;;;8.40;99.90;;;;;;5073102;28;20484;-56
2024/02/27 03:46:39;;;;;;;27.03;19.73;;;8.40;99.90;;;;;;5073338;28;20455;-56
2024/02/27 03:49:06;;;;;;;23.60;19.33;;;8.40;99.90;;;;;;5073131;28;20441;-56
2024/02/27 03:51:33;;;;;;;23.73;18.97;;;8.40;99.90;;;;;;5073154;28;20548;-56
2024/02/27 03:54:00;;;;;;;24.33;18.87;;;8.40;99.90;;;;;;5073242;28;20457;-56
2024/02/27 03:56:26;;;;;;;24.60;19.90;;;8.40;99.90;;;;;;5073546;28;20816;-56
2024/02/27 03:58:53;;;;;;;25.73;19.00;;;8.40;99.90;;;;;;5073310;28;20441;-56
2024/02/27 04:01:20;;;;;;;26.63;20.63;;;8.40;99.90;;;;;;5072893;28;20466;-56
2024/02/27 04:03:48;;;;;;;24.57;20.07;;;8.40;99.90;;;;;;5072964;28;20961;-56
2024/02/27 04:06:16;;;;;;;25.47;19.00;;;8.40;99.90;;;;;;5072891;28;20968;-56
2024/02/27 04:08:43;;;;;;;23.70;19.20;;;8.40;99.90;;;;;;5073100;28;20449;-56
2024/02/27 04:11:10;;;;;;;25.03;19.13;;;8.40;99.90;;;;;;5072986;28;20480;-55
2024/02/27 04:13:37;;;;;;;27.50;19.87;;;8.40;99.90;;;;;;5072889;28;20444;-56
2024/02/27 04:16:04;;;;;;;27.70;19.57;;;8.40;99.90;;;;;;5073151;28;20451;-56
2024/02/27 04:18:32;;;;;;;25.23;20.17;;;8.40;99.90;;;;;;5073197;28;20452;-56
2024/02/27 04:21:00;;;;;;;23.90;18.37;;;8.30;99.90;;;;;;5072809;28;20955;-55
2024/02/27 04:23:27;;;;;;;25.90;18.33;;;8.30;99.90;;;;;;5073175;28;20451;-56
2024/02/27 04:25:53;;;;;;;24.77;19.07;;;8.30;99.90;;;;;;5072679;28;21005;-56
2024/02/27 04:28:20;;;;;;;24.57;18.90;;;8.30;99.90;;;;;;5072921;28;20538;-56
2024/02/27 04:30:47;;;;;;;27.50;20.10;;;8.30;99.90;;;;;;5072955;28;20495;-56
2024/02/27 04:33:14;;;;;;;27.63;20.13;;;8.30;99.90;;;;;;5072879;28;20551;-56
2024/02/27 04:35:41;;;;;;;27.33;20.57;;;8.30;99.90;;;;;;5075786;28;20440;-56
2024/02/27 04:38:09;;;;;;;24.90;19.30;;;8.30;99.90;;;;;;5076364;28;20445;-55
2024/02/27 04:40:36;;;;;;;27.63;19.23;;;8.30;99.90;;;;;;5076479;28;20922;-56
2024/02/27 04:43:03;;;;;;;26.07;20.70;;;8.30;99.90;;;;;;5076547;28;20463;-56
2024/02/27 04:45:30;;;;;;;25.60;18.80;;;8.30;99.90;;;;;;5076160;28;20457;-56
2024/02/27 04:47:56;;;;;;;28.50;20.20;;;8.30;99.90;;;;;;5076246;28;20817;-55
2024/02/27 04:50:23;;;;;;;29.90;20.93;;;8.30;99.90;;;;;;5077098;28;20480;-56
2024/02/27 04:52:50;;;;;;;29.67;20.80;;;8.30;99.90;;;;;;5075997;28;20552;-56
2024/02/27 04:55:18;;;;;;;30.40;21.80;;;8.30;99.90;;;;;;5075894;28;20456;-56
2024/02/27 04:57:45;;;;;;;27.07;20.63;;;8.20;99.90;;;;;;5076038;28;20436;-56
2024/02/27 05:00:14;;;;;;;22.97;18.63;;;8.20;99.90;;;;;;5076033;28;20437;-56
2024/02/27 05:02:43;;;;;;;27.20;19.90;;;8.20;99.90;;;;;;5076211;28;20499;-56
2024/02/27 05:05:09;;;;;;;29.00;19.53;;;8.20;99.90;;;;;;5076226;28;20441;-56
2024/02/27 05:07:36;;;;;;;24.10;18.37;;;8.20;99.90;;;;;;5076164;28;20527;-55
2024/02/27 05:10:03;;;;;;;25.13;19.50;;;8.20;99.90;;;;;;5075913;28;20483;-56
2024/02/27 05:12:31;;;;;;;25.47;19.60;;;8.20;99.90;;;;;;5075990;28;20460;-56
2024/02/27 05:14:59;;;;;;;28.93;21.27;;;8.20;99.90;;;;;;5075796;28;20902;-56
2024/02/27 05:17:26;;;;;;;28.27;20.07;;;8.20;99.90;;;;;;5075693;28;20939;-56
2024/02/27 05:19:53;;;;;;;26.93;19.90;;;8.20;99.90;;;;;;5075646;28;20494;-56
2024/02/27 05:22:20;;;;;;;27.90;21.10;;;8.20;99.90;;;;;;5075814;28;20469;-55
2024/02/27 05:24:47;;;;;;;27.43;20.97;;;8.20;99.90;;;;;;5075898;28;20441;-55
2024/02/27 05:27:14;;;;;;;29.00;21.03;;;8.20;99.90;;;;;;5076070;28;20490;-55
2024/02/27 05:29:43;;;;;;;28.67;21.63;;;8.20;99.90;;;;;;5075483;28;20514;-55
2024/02/27 05:32:10;;;;;;;26.90;20.40;;;8.20;99.90;;;;;;5075540;28;20503;-55
2024/02/27 05:34:37;;;;;;;28.10;22.00;;;8.20;99.90;;;;;;5075610;28;20455;-55
2024/02/27 05:37:03;;;;;;;31.57;22.17;;;8.10;99.90;;;;;;5075596;28;20448;-55
2024/02/27 05:39:31;;;;;;;24.53;18.93;;;8.10;99.90;;;;;;5075364;28;20445;-56
2024/02/27 05:41:59;;;;;;;26.97;21.17;;;8.10;99.90;;;;;;5075480;28;20899;-55
2024/02/27 05:44:26;;;;;;;31.07;22.40;;;8.10;99.90;;;;;;5075194;28;20790;-56
2024/02/27 05:46:54;;;;;;;27.20;19.87;;;8.10;99.90;;;;;;5075168;28;20449;-55
2024/02/27 05:49:21;;;;;;;30.80;23.73;;;8.10;99.90;;;;;;5074927;28;20444;-56
2024/02/27 05:51:48;;;;;;;27.27;21.70;;;8.10;99.90;;;;;;5075210;28;20572;-55
2024/02/27 05:54:15;;;;;;;29.17;21.33;;;8.10;99.90;;;;;;5075039;28;20513;-56
2024/02/27 05:56:42;;;;;;;29.40;22.03;;;8.10;99.90;;;;;;5075891;28;20930;-56
2024/02/27 05:59:08;;;;;;;28.23;20.80;;;8.10;99.90;;;;;;5075125;28;20444;-56
2024/02/27 06:01:36;;;;;;;27.43;22.10;;;8.10;99.90;;;;;;5075138;28;20452;-56
2024/02/27 06:04:04;;;;;;;30.73;21.33;;;8.10;99.90;;;;;;5074891;28;20950;-56
2024/02/27 06:06:31;;;;;;;31.17;22.47;;;8.10;99.90;;;;;;5075104;28;20444;-56
2024/02/27 06:08:57;;;;;;;28.23;21.10;;;8.10;99.90;;;;;;5074960;28;20449;-56
2024/02/27 06:11:24;;;;;;;30.00;22.03;;;8.10;99.90;;;;;;5076017;28;20480;-56
2024/02/27 06:13:51;;;;;;;29.73;23.03;;;8.10;99.90;;;;;;5075741;28;20825;-56
2024/02/27 06:16:18;;;;;;;30.60;23.07;;;8.10;99.90;;;;;;5075369;28;20448;-56
2024/02/27 06:18:47;;;;;;;29.23;21.40;;;8.10;99.90;;;;;;5075152;28;20445;-56
2024/02/27 06:24:00;;;;;;;31.30;22.57;;;8.10;99.90;;;;;;5075084;28;20420;-56
2024/02/27 06:26:27;;;;;;;29.87;22.83;;;8.10;99.90;;;;;;5074780;28;20821;-56
2024/02/27 06:28:54;;;;;;;30.97;23.40;;;8.00;99.90;;;;;;5075278;28;20440;-56
2024/02/27 06:31:21;;;;;;;33.50;22.60;;;8.10;99.90;;;;;;5074636;28;20488;-56
2024/02/27 06:33:47;;;;;;;29.37;22.60;;;8.10;99.90;;;;;;5074408;28;20527;-56
2024/02/27 06:36:16;;;;;;;26.87;20.40;;;8.10;99.90;;;;;;5074829;28;20535;-56
2024/02/27 06:38:42;;;;;;;30.73;22.43;;;8.10;99.90;;;;;;5074822;28;20444;-55
2024/02/27 06:41:09;;;;;;;29.13;22.20;;;8.10;99.90;;;;;;5074689;28;20432;-55
2024/02/27 06:43:36;;;;;;;27.50;20.67;;;8.10;99.90;;;;;;5074387;28;20451;-55
2024/02/27 06:46:05;;;;;;;30.97;22.40;;;8.10;99.90;;;;;;5074704;28;20453;-56
2024/02/27 06:48:32;;;;;;;28.80;21.90;;;8.10;99.90;;;;;;5074956;28;20480;-56
2024/02/27 06:51:00;;;;;;;30.17;22.47;;;8.10;99.90;;;;;;5074305;28;21028;-55
2024/02/27 06:53:28;;;;;;;30.70;22.40;;;8.10;99.90;;;;;;5074745;28;20464;-55
2024/02/27 06:55:55;;;;;;;29.20;21.97;;;8.20;99.90;;;;;;5074773;28;20528;-55
2024/02/27 06:58:21;;;;;;;27.00;21.13;;;8.20;99.90;;;;;;5074533;28;20642;-56
2024/02/27 07:00:48;;;;;;;31.67;22.80;;;8.20;99.90;;;;;;5074428;28;20436;-56
2024/02/27 07:03:15;;;;;;;30.60;24.40;;;8.20;99.90;;;;;;5073942;28;20471;-55
2024/02/27 07:05:42;;;;;;;31.23;23.60;;;8.20;99.90;;;;;;5074019;28;20440;-56
2024/02/27 07:08:09;;;;;;;33.90;23.70;;;8.30;99.90;;;;;;5073582;28;20453;-56
2024/02/27 07:10:38;;;;;;;30.50;23.97;;;8.30;99.90;;;;;;5073680;28;20571;-56
2024/02/27 07:13:06;;;;;;;31.70;23.17;;;8.30;99.90;;;;;;5073418;28;20472;-56
2024/02/27 07:15:33;;;;;;;31.27;23.27;;;8.30;99.90;;;;;;5073787;28;20445;-56
2024/02/27 07:18:00;;;;;;;34.23;24.23;;;8.30;99.90;;;;;;5073382;28;20822;-56
2024/02/27 07:20:27;;;;;;;39.60;27.50;;;8.40;99.90;;;;;;5073309;28;20938;-56
2024/02/27 07:22:54;;;;;;;33.90;25.97;;;8.40;99.90;;;;;;5073550;28;20471;-56
2024/02/27 07:25:20;;;;;;;42.80;27.53;;;8.40;99.90;;;;;;5073259;28;20452;-55
2024/02/27 07:27:49;;;;;;;37.00;27.40;;;8.50;99.90;;;;;;5073626;28;20788;-56
2024/02/27 07:30:17;;;;;;;36.03;25.90;;;8.50;99.90;;;;;;5072991;28;20819;-56
2024/02/27 07:32:44;;;;;;;37.17;26.80;;;8.50;99.90;;;;;;5073356;28;20463;-55
2024/02/27 07:35:11;;;;;;;37.33;28.10;;;8.60;99.90;;;;;;5073491;28;20446;-55
2024/02/27 07:37:38;;;;;;;32.53;25.13;;;8.60;99.90;;;;;;5073406;28;20444;-56
2024/02/27 07:40:06;;;;;;;30.87;23.87;;;8.60;99.90;;;;;;5073405;28;20452;-56
2024/02/27 07:42:33;;;;;;;31.50;24.53;;;8.60;99.90;;;;;;5073132;28;21072;-56
2024/02/27 07:45:01;;;;;;;30.50;22.67;;;8.70;99.90;;;;;;5073350;28;20476;-55
2024/02/27 07:47:28;;;;;;;28.30;21.90;;;8.70;99.90;;;;;;5073323;28;20436;-56
2024/02/27 07:49:55;;;;;;;26.37;21.77;;;8.80;99.90;;;;;;5072787;28;20934;-55
2024/02/27 07:52:22;;;;;;;31.03;22.00;;;8.80;99.90;;;;;;5073063;28;20512;-55
2024/02/27 07:54:49;;;;;;;27.40;21.67;;;8.90;99.90;;;;;;5072908;28;20539;-56
2024/02/27 07:57:15;;;;;;;33.93;24.67;;;8.90;99.90;;;;;;5073172;28;20445;-56
2024/02/27 07:59:42;;;;;;;29.47;22.27;;;9.00;99.90;;;;;;5073212;28;20528;-56
2024/02/27 08:02:10;;;;;;;29.53;23.57;;;9.00;99.90;;;;;;5072820;28;20469;-55
2024/02/27 08:04:37;;;;;;;27.33;21.47;;;9.00;99.90;;;;;;5073164;28;20441;-56
2024/02/27 08:07:04;;;;;;;32.00;23.77;;;9.10;99.90;;;;;;5072832;28;20931;-55
2024/02/27 08:09:33;;;;;;;28.90;21.90;;;9.10;99.90;;;;;;5075634;28;20539;-55
2024/02/27 08:11:59;;;;;;;28.90;23.10;;;9.10;99.90;;;;;;5077012;28;20535;-56
2024/02/27 08:14:29;;;;;;;35.53;26.10;;;9.20;99.90;;;;;;5077147;28;20448;-56
2024/02/27 08:16:57;;;;;;;28.30;23.50;;;9.20;99.90;;;;;;5077042;28;20455;-55
2024/02/27 08:19:26;;;;;;;28.93;21.90;;;9.30;99.90;;;;;;5076716;28;20452;-56
2024/02/27 08:21:53;;;;;;;30.77;23.77;;;9.30;99.90;;;;;;5076894;28;20479;-55
2024/02/27 08:24:20;;;;;;;32.03;25.17;;;9.30;99.90;;;;;;5076917;28;20455;-56
2024/02/27 08:26:46;;;;;;;33.00;24.50;;;9.30;99.90;;;;;;5076797;28;20455;-55
2024/02/27 08:29:13;;;;;;;30.37;23.97;;;9.40;99.90;;;;;;5076748;28;20444;-56
2024/02/27 08:31:40;;;;;;;32.60;23.77;;;9.40;99.90;;;;;;5076585;28;20557;-55
2024/02/27 08:34:07;;;;;;;33.03;25.33;;;9.40;99.90;;;;;;5076743;28;20498;-56
2024/02/27 08:36:35;;;;;;;32.23;24.03;;;9.40;99.90;;;;;;5076698;28;20443;-56
2024/02/27 08:39:04;;;;;;;31.40;24.60;;;9.40;99.90;;;;;;5076606;28;20467;-55
2024/02/27 08:41:32;;;;;;;31.27;23.83;;;9.40;99.90;;;;;;5076232;28;20461;-55
2024/02/27 08:43:59;;;;;;;32.23;24.40;;;9.50;99.90;;;;;;5076571;28;20448;-56
2024/02/27 08:46:26;;;;;;;33.67;25.70;;;9.50;99.90;;;;;;5076479;28;20524;-56
2024/02/27 08:48:53;;;;;;;32.13;24.50;;;9.50;99.90;;;;;;5076426;28;20441;-56
2024/02/27 08:51:19;;;;;;;32.23;24.87;;;9.60;99.90;;;;;;5076231;28;20498;-56
2024/02/27 08:53:48;;;;;;;30.30;23.53;;;9.70;99.90;;;;;;5076147;28;20452;-56
2024/02/27 08:56:14;;;;;;;35.33;25.77;;;9.80;99.90;;;;;;5076315;28;20528;-56
2024/02/27 08:58:41;;;;;;;34.27;24.90;;;9.90;99.90;;;;;;5076293;28;20529;-56
2024/02/27 09:01:08;;;;;;;33.10;25.60;;;10.10;99.90;;;;;;5076109;28;20441;-56
2024/02/27 09:03:35;;;;;;;31.23;24.17;;;10.20;99.90;;;;;;5075897;28;20447;-56
2024/02/27 09:06:02;;;;;;;28.80;22.57;;;10.30;99.90;;;;;;5076174;28;20444;-56
2024/02/27 09:08:30;;;;;;;32.77;24.80;;;10.50;99.90;;;;;;5076329;28;20535;-56
2024/02/27 09:10:58;;;;;;;30.40;23.73;;;10.60;99.90;;;;;;5075884;28;20453;-55
2024/02/27 09:13:25;;;;;;;33.93;25.10;;;10.70;99.90;;;;;;5075928;28;20454;-56
2024/02/27 09:15:51;;;;;;;32.53;24.83;;;10.80;99.90;;;;;;5076023;28;20444;-56
2024/02/27 09:18:18;;;;;;;32.90;25.33;;;10.90;99.90;;;;;;5075941;28;20449;-56
2024/02/27 09:20:45;;;;;;;32.43;25.10;;;11.00;99.90;;;;;;5075421;28;20934;-56
2024/02/27 09:23:12;;;;;;;34.13;25.73;;;11.10;99.90;;;;;;5076233;28;20465;-55
2024/02/27 09:25:39;;;;;;;28.17;22.07;;;11.20;99.90;;;;;;5075972;28;20800;-56
2024/02/27 09:28:07;;;;;;;29.53;23.23;;;11.40;99.90;;;;;;5076070;28;20445;-56
2024/02/27 09:30:34;;;;;;;28.40;21.50;;;11.50;99.80;;;;;;5076263;28;20444;-56
2024/02/27 09:33:01;;;;;;;25.93;20.80;;;11.60;99.60;;;;;;5075300;28;20480;-56
2024/02/27 09:35:31;;;;;;;28.43;22.90;;;11.80;99.60;;;;;;5075718;28;20463;-56
2024/02/27 09:37:57;;;;;;;33.10;24.73;;;11.90;99.30;;;;;;5075706;28;20520;-55
2024/02/27 09:40:24;;;;;;;31.67;25.40;;;11.90;98.10;;;;;;5075637;28;20445;-56
2024/02/27 09:42:54;;;;;;;30.00;24.27;;;11.90;97.80;;;;;;5075475;28;20453;-56
2024/02/27 09:45:25;;;;;;;26.77;22.23;;;11.90;97.60;;;;;;5075745;28;20449;-55
2024/02/27 09:47:54;;;;;;;30.30;24.70;;;11.90;97.70;;;;;;5075489;28;20488;-56
2024/02/27 09:50:22;;;;;;;30.27;24.23;;;11.90;97.80;;;;;;5075110;28;20618;-56
2024/02/27 09:52:50;;;;;;;31.43;24.47;;;12.00;97.80;;;;;;5074775;28;20863;-55
2024/02/27 09:55:19;;;;;;;29.33;23.97;;;12.00;97.70;;;;;;5075040;28;20463;-56
2024/02/27 09:57:47;;;;;;;32.10;25.90;;;12.00;97.70;;;;;;5075329;28;20440;-56
2024/02/27 10:00:16;;;;;;;31.60;24.90;;;12.20;97.80;;;;;;5074909;28;20452;-56
2024/02/27 10:02:47;;;;;;;29.77;24.07;;;12.30;97.70;;;;;;5075043;28;20869;-55
2024/02/27 10:05:17;;;;;;;27.50;22.10;;;12.40;97.40;;;;;;5075120;28;20429;-56
2024/02/27 10:07:48;;;;;;;29.93;21.93;;;12.40;97.20;;;;;;5075722;28;20451;-56
2024/02/27 10:10:16;;;;;;;30.37;23.83;;;12.50;97.10;;;;;;5074982;28;20444;-56
2024/02/27 10:12:42;;;;;;;28.43;22.70;;;12.60;96.80;;;;;;5074746;28;20633;-56
2024/02/27 10:15:10;;;;;;;23.30;20.80;;;12.70;96.90;;;;;;5074919;28;20451;-55
2024/02/27 10:17:38;;;;;;;26.77;22.47;;;12.70;96.60;;;;;;5074743;28;20491;-56
2024/02/27 10:20:10;;;;;;;25.87;21.23;;;12.80;96.10;;;;;;5074852;28;20501;-56
2024/02/27 10:22:37;;;;;;;28.40;22.90;;;12.80;96.00;;;;;;5074840;28;20467;-55
2024/02/27 10:25:06;;;;;;;25.20;21.20;;;12.90;95.70;;;;;;5074695;28;20444;-56
2024/02/27 10:27:33;;;;;;;26.53;21.43;;;13.00;95.60;;;;;;5074725;28;20460;-55
2024/02/27 10:30:00;;;;;;;25.43;21.73;;;13.10;95.50;;;;;;5074683;28;20467;-56
2024/02/27 10:32:31;;;;;;;26.10;20.03;;;13.10;95.30;;;;;;5073515;28;20567;-56
2024/02/27 10:34:58;;;;;;;26.43;22.10;;;13.20;95.20;;;;;;5074492;28;20425;-55
2024/02/27 10:37:31;;;;;;;27.50;23.43;;;13.20;94.80;;;;;;5074449;28;20846;-56
2024/02/27 10:39:58;;;;;;;25.93;22.47;;;13.20;94.70;;;;;;5074474;28;20429;-56
2024/02/27 10:42:26;;;;;;;23.40;19.67;;;13.30;94.60;;;;;;5074229;28;20480;-56
2024/02/27 10:44:53;;;;;;;26.63;21.50;;;13.40;94.30;;;;;;5074203;28;20441;-55
2024/02/27 10:47:22;;;;;;;25.23;20.60;;;13.50;94.20;;;;;;5073939;28;20964;-56
2024/02/27 10:49:49;;;;;;;22.70;18.43;;;13.70;93.70;;;;;;5073864;28;20942;-56
2024/02/27 10:52:18;;;;;;;25.23;21.33;;;14.00;93.50;;;;;;5073894;28;20580;-56
2024/02/27 10:54:46;;;;;;;26.93;22.43;;;14.20;92.90;;;;;;5073587;28;20968;-56
2024/02/27 10:57:14;;;;;;;24.37;20.90;;;14.50;92.20;;;;;;5074022;28;20445;-56
2024/02/27 10:59:42;;;;;;;22.77;20.33;;;14.80;91.20;;;;;;5074027;28;20441;-56
2024/02/27 11:02:16;;;;;;;24.70;22.07;;;15.00;90.90;;;;;;5073899;28;20456;-56
2024/02/27 11:04:44;;;;;;;25.00;20.60;;;15.10;90.30;;;;;;5073618;28;20923;-56
2024/02/27 11:07:13;;;;;;;26.13;21.90;;;15.20;89.60;;;;;;5073927;28;20449;-55
2024/02/27 11:09:43;;;;;;;25.20;22.50;;;15.30;88.30;;;;;;5073520;28;20813;-56
2024/02/27 11:12:14;;;;;;;21.23;18.93;;;15.40;87.30;;;;;;5073658;28;20861;-56
2024/02/27 11:14:43;;;;;;;22.10;19.20;;;15.50;87.30;;;;;;5074000;28;20425;-56
2024/02/27 11:17:14;;;;;;;22.50;20.00;;;15.70;85.30;;;;;;5073705;28;20444;-56
2024/02/27 11:19:47;;;;;;;23.40;20.90;;;15.80;84.80;;;;;;5073404;28;20424;-56
2024/02/27 11:22:15;;;;;;;24.43;21.57;;;15.90;84.20;;;;;;5073571;28;20453;-56
2024/02/27 11:24:42;;;;;;;21.30;19.03;;;16.10;83.00;;;;;;5073295;28;20463;-56
2024/02/27 11:27:12;;;;;;;21.50;18.97;;;16.50;83.60;;;;;;5073240;28;20965;-56
2024/02/27 11:29:39;;;;;;;21.23;19.13;;;17.00;78.60;;;;;;5073583;28;20429;-56
2024/02/27 11:32:07;;;;;;;21.90;19.70;;;17.30;76.30;;;;;;5073240;28;20490;-56
2024/02/27 11:34:34;;;;;;;22.97;20.47;;;17.60;75.80;;;;;;5073176;28;20519;-56
2024/02/27 11:37:08;;;;;;;22.77;20.47;;;17.90;75.10;;;;;;5073416;28;20453;-56
2024/02/27 11:39:35;;;;;;;22.13;19.73;;;18.40;72.10;;;;;;5073478;28;20458;-56
2024/02/27 11:42:03;;;;;;;21.70;19.53;;;18.60;67.90;;;;;;5073027;28;20998;-56
2024/02/27 11:44:31;;;;;;;22.67;20.37;;;18.50;65.80;;;;;;5073126;28;20501;-56
2024/02/27 11:46:58;;;;;;;22.23;19.87;;;18.30;66.20;;;;;;5073091;28;20448;-56
2024/02/27 11:49:41;;;;;;;21.90;19.70;;;17.90;66.20;;;;;;5073016;28;20939;-56
2024/02/27 11:52:08;;;;;;;20.97;18.83;;;17.50;66.10;;;;;;5072999;28;20484;-56
2024/02/27 11:54:36;;;;;;;23.03;20.53;;;17.00;67.00;;;;;;5072959;28;20456;-56
2024/02/27 11:57:03;;;;;;;24.13;21.63;;;16.60;67.50;;;;;;5073256;28;20449;-56
2024/02/27 11:59:32;;;;;;;23.07;20.67;;;16.20;69.20;;;;;;5072976;28;20940;-56
2024/02/27 12:02:01;;;;;;;22.00;19.70;;;15.90;71.20;;;;;;5073154;28;20461;-56
2024/02/27 12:04:28;;;;;;;22.83;20.47;;;15.70;72.60;;;;;;5072975;28;20938;-56
2024/02/27 12:06:55;;;;;;;25.23;22.53;;;15.50;74.30;;;;;;5073138;28;20452;-56
2024/02/27 12:09:26;;;;;;;27.17;24.23;;;15.40;75.30;;;;;;5072906;28;20443;-56
2024/02/27 12:11:53;;;;;;;30.97;27.83;;;15.30;75.70;;;;;;5072913;28;20461;-56
2024/02/27 12:14:20;;;;;;;29.73;26.27;;;15.40;76.50;;;;;;5072996;28;20449;-56
2024/02/27 12:16:49;;;;;;;25.87;23.07;;;15.60;76.30;;;;;;5073028;28;20447;-55
2024/02/27 12:19:16;;;;;;;27.40;24.53;;;15.70;75.50;;;;;;5072976;28;20449;-56
2024/02/27 12:21:43;;;;;;;30.90;26.93;;;15.70;75.10;;;;;;5072956;28;20467;-56
2024/02/27 12:24:09;;;;;;;29.40;22.50;;;15.80;75.00;;;;;;5073016;28;20445;-56
2024/02/27 12:26:36;;;;;;;22.77;20.40;;;15.80;74.70;;;;;;5072982;28;20440;-56
2024/02/27 12:29:03;;;;;;;24.10;21.60;;;15.90;74.40;;;;;;5073532;28;20444;-55
2024/02/27 12:31:31;;;;;;;22.60;20.37;;;16.10;73.70;;;;;;5073242;28;20467;-55
2024/02/27 12:34:00;;;;;;;24.23;21.63;;;16.60;73.60;;;;;;5072611;28;21006;-56
2024/02/27 12:36:26;;;;;;;26.23;23.50;;;17.20;71.20;;;;;;5072989;28;20519;-56